sensor_id;sensor_type;location;lat;lon;timestamp;P1;durP1;ratioP1;P2;durP2;ratioP2
55672;SDS011;41554;45.366;20.400;2023-11-21T00:00:27;56.65;;;48.65;;
55672;SDS011;41554;45.366;20.400;2023-11-21T00:02:53;55.65;;;45.38;;
55672;SDS011;41554;45.366;20.400;2023-11-21T00:05:19;64.20;;;47.08;;
55672;SDS011;41554;45.366;20.400;2023-11-21T00:07:45;53.08;;;41.72;;
55672;SDS011;41554;45.366;20.400;2023-11-21T00:10:11;58.55;;;39.58;;
55672;SDS011;41554;45.366;20.400;2023-11-21T00:12:39;48.20;;;34.83;;
55672;SDS011;41554;45.366;20.400;2023-11-21T00:15:07;43.25;;;32.33;;
55672;SDS011;41554;45.366;20.400;2023-11-21T00:17:37;38.92;;;29.17;;
55672;SDS011;41554;45.366;20.400;2023-11-21T00:20:03;39.03;;;25.13;;
55672;SDS011;41554;45.366;20.400;2023-11-21T00:22:35;29.17;;;23.45;;
55672;SDS011;41554;45.366;20.400;2023-11-21T00:25:01;25.40;;;21.27;;
55672;SDS011;41554;45.366;20.400;2023-11-21T00:27:29;34.53;;;22.77;;
55672;SDS011;41554;45.366;20.400;2023-11-21T00:29:55;30.02;;;23.50;;
55672;SDS011;41554;45.366;20.400;2023-11-21T00:32:21;35.78;;;23.88;;
55672;SDS011;41554;45.366;20.400;2023-11-21T00:34:47;32.08;;;23.42;;
55672;SDS011;41554;45.366;20.400;2023-11-21T00:37:13;29.63;;;20.83;;
55672;SDS011;41554;45.366;20.400;2023-11-21T00:39:39;32.38;;;22.35;;
55672;SDS011;41554;45.366;20.400;2023-11-21T00:42:06;31.60;;;22.13;;
55672;SDS011;41554;45.366;20.400;2023-11-21T00:44:33;34.90;;;23.48;;
55672;SDS011;41554;45.366;20.400;2023-11-21T00:46:59;32.58;;;23.08;;
55672;SDS011;41554;45.366;20.400;2023-11-21T00:49:26;31.52;;;23.98;;
55672;SDS011;41554;45.366;20.400;2023-11-21T00:51:53;31.65;;;21.80;;
55672;SDS011;41554;45.366;20.400;2023-11-21T00:54:19;31.77;;;23.20;;
55672;SDS011;41554;45.366;20.400;2023-11-21T00:56:45;27.92;;;19.95;;
55672;SDS011;41554;45.366;20.400;2023-11-21T00:59:13;25.98;;;20.77;;
55672;SDS011;41554;45.366;20.400;2023-11-21T01:01:39;33.28;;;21.63;;
55672;SDS011;41554;45.366;20.400;2023-11-21T01:04:05;27.80;;;21.70;;
55672;SDS011;41554;45.366;20.400;2023-11-21T01:06:32;33.90;;;23.23;;
55672;SDS011;41554;45.366;20.400;2023-11-21T01:08:58;38.92;;;22.35;;
55672;SDS011;41554;45.366;20.400;2023-11-21T01:11:24;34.50;;;22.80;;
55672;SDS011;41554;45.366;20.400;2023-11-21T01:13:51;31.17;;;22.70;;
55672;SDS011;41554;45.366;20.400;2023-11-21T01:16:18;33.20;;;20.65;;
55672;SDS011;41554;45.366;20.400;2023-11-21T01:18:44;34.47;;;20.70;;
55672;SDS011;41554;45.366;20.400;2023-11-21T01:21:10;31.65;;;21.42;;
55672;SDS011;41554;45.366;20.400;2023-11-21T01:23:37;30.25;;;22.25;;
55672;SDS011;41554;45.366;20.400;2023-11-21T01:26:03;28.38;;;20.50;;
55672;SDS011;41554;45.366;20.400;2023-11-21T01:28:29;26.90;;;21.42;;
55672;SDS011;41554;45.366;20.400;2023-11-21T01:30:55;34.75;;;21.63;;
55672;SDS011;41554;45.366;20.400;2023-11-21T01:33:22;22.23;;;18.30;;
55672;SDS011;41554;45.366;20.400;2023-11-21T01:35:50;24.75;;;18.20;;
55672;SDS011;41554;45.366;20.400;2023-11-21T01:38:18;24.23;;;17.73;;
55672;SDS011;41554;45.366;20.400;2023-11-21T01:40:44;27.70;;;18.98;;
55672;SDS011;41554;45.366;20.400;2023-11-21T01:43:10;28.85;;;20.17;;
55672;SDS011;41554;45.366;20.400;2023-11-21T01:45:36;25.52;;;17.80;;
55672;SDS011;41554;45.366;20.400;2023-11-21T01:48:04;27.88;;;21.08;;
55672;SDS011;41554;45.366;20.400;2023-11-21T01:50:32;24.80;;;18.85;;
55672;SDS011;41554;45.366;20.400;2023-11-21T01:52:58;40.45;;;20.95;;
55672;SDS011;41554;45.366;20.400;2023-11-21T01:55:26;20.50;;;16.05;;
55672;SDS011;41554;45.366;20.400;2023-11-21T01:57:55;26.05;;;18.80;;
55672;SDS011;41554;45.366;20.400;2023-11-21T02:00:22;23.33;;;16.63;;
55672;SDS011;41554;45.366;20.400;2023-11-21T02:02:48;20.23;;;16.08;;
55672;SDS011;41554;45.366;20.400;2023-11-21T02:05:15;22.95;;;16.08;;
55672;SDS011;41554;45.366;20.400;2023-11-21T02:07:43;25.10;;;17.35;;
55672;SDS011;41554;45.366;20.400;2023-11-21T02:10:09;24.80;;;15.70;;
55672;SDS011;41554;45.366;20.400;2023-11-21T02:12:39;22.92;;;15.80;;
55672;SDS011;41554;45.366;20.400;2023-11-21T02:15:07;21.50;;;15.43;;
55672;SDS011;41554;45.366;20.400;2023-11-21T02:17:40;21.00;;;15.98;;
55672;SDS011;41554;45.366;20.400;2023-11-21T02:20:06;25.73;;;17.25;;
55672;SDS011;41554;45.366;20.400;2023-11-21T02:22:33;23.95;;;16.85;;
55672;SDS011;41554;45.366;20.400;2023-11-21T02:25:02;19.23;;;15.40;;
55672;SDS011;41554;45.366;20.400;2023-11-21T02:27:28;21.35;;;16.58;;
55672;SDS011;41554;45.366;20.400;2023-11-21T02:29:54;22.73;;;17.27;;
55672;SDS011;41554;45.366;20.400;2023-11-21T02:32:20;28.10;;;18.60;;
55672;SDS011;41554;45.366;20.400;2023-11-21T02:34:48;22.50;;;16.38;;
55672;SDS011;41554;45.366;20.400;2023-11-21T02:37:15;21.00;;;16.27;;
55672;SDS011;41554;45.366;20.400;2023-11-21T02:39:41;25.85;;;16.92;;
55672;SDS011;41554;45.366;20.400;2023-11-21T02:42:07;25.10;;;17.13;;
55672;SDS011;41554;45.366;20.400;2023-11-21T02:44:33;25.52;;;17.60;;
55672;SDS011;41554;45.366;20.400;2023-11-21T02:46:59;24.80;;;16.77;;
55672;SDS011;41554;45.366;20.400;2023-11-21T02:49:26;23.80;;;16.58;;
55672;SDS011;41554;45.366;20.400;2023-11-21T02:51:55;18.80;;;16.85;;
55672;SDS011;41554;45.366;20.400;2023-11-21T02:54:21;25.90;;;18.48;;
55672;SDS011;41554;45.366;20.400;2023-11-21T02:56:48;27.40;;;16.75;;
55672;SDS011;41554;45.366;20.400;2023-11-21T02:59:14;24.23;;;16.45;;
55672;SDS011;41554;45.366;20.400;2023-11-21T03:01:40;20.25;;;13.85;;
55672;SDS011;41554;45.366;20.400;2023-11-21T03:04:06;20.58;;;15.80;;
55672;SDS011;41554;45.366;20.400;2023-11-21T03:06:33;19.08;;;13.63;;
55672;SDS011;41554;45.366;20.400;2023-11-21T03:08:59;24.88;;;15.88;;
55672;SDS011;41554;45.366;20.400;2023-11-21T03:11:25;26.23;;;14.77;;
55672;SDS011;41554;45.366;20.400;2023-11-21T03:13:51;20.17;;;14.85;;
55672;SDS011;41554;45.366;20.400;2023-11-21T03:16:18;21.23;;;14.70;;
55672;SDS011;41554;45.366;20.400;2023-11-21T03:18:44;21.08;;;14.63;;
55672;SDS011;41554;45.366;20.400;2023-11-21T03:21:10;22.35;;;14.52;;
55672;SDS011;41554;45.366;20.400;2023-11-21T03:23:36;19.80;;;14.15;;
55672;SDS011;41554;45.366;20.400;2023-11-21T03:26:03;16.67;;;12.63;;
55672;SDS011;41554;45.366;20.400;2023-11-21T03:28:29;21.88;;;15.18;;
55672;SDS011;41554;45.366;20.400;2023-11-21T03:30:55;20.73;;;13.90;;
55672;SDS011;41554;45.366;20.400;2023-11-21T03:33:21;17.73;;;13.95;;
55672;SDS011;41554;45.366;20.400;2023-11-21T03:35:47;20.88;;;14.80;;
55672;SDS011;41554;45.366;20.400;2023-11-21T03:38:14;17.08;;;11.48;;
55672;SDS011;41554;45.366;20.400;2023-11-21T03:40:41;19.55;;;12.75;;
55672;SDS011;41554;45.366;20.400;2023-11-21T03:43:07;22.17;;;14.30;;
55672;SDS011;41554;45.366;20.400;2023-11-21T03:45:33;29.10;;;14.23;;
55672;SDS011;41554;45.366;20.400;2023-11-21T03:47:59;18.00;;;13.82;;
55672;SDS011;41554;45.366;20.400;2023-11-21T03:50:27;16.92;;;12.70;;
55672;SDS011;41554;45.366;20.400;2023-11-21T03:52:53;18.02;;;14.02;;
55672;SDS011;41554;45.366;20.400;2023-11-21T03:55:19;22.42;;;12.65;;
55672;SDS011;41554;45.366;20.400;2023-11-21T03:57:45;27.13;;;13.70;;
55672;SDS011;41554;45.366;20.400;2023-11-21T04:00:11;21.23;;;13.88;;
55672;SDS011;41554;45.366;20.400;2023-11-21T04:02:37;21.35;;;12.90;;
55672;SDS011;41554;45.366;20.400;2023-11-21T04:05:04;16.45;;;12.18;;
55672;SDS011;41554;45.366;20.400;2023-11-21T04:07:32;14.02;;;11.52;;
55672;SDS011;41554;45.366;20.400;2023-11-21T04:09:59;14.90;;;10.95;;
55672;SDS011;41554;45.366;20.400;2023-11-21T04:12:25;22.88;;;12.18;;
55672;SDS011;41554;45.366;20.400;2023-11-21T04:14:51;15.98;;;12.82;;
55672;SDS011;41554;45.366;20.400;2023-11-21T04:17:18;21.20;;;11.60;;
55672;SDS011;41554;45.366;20.400;2023-11-21T04:19:44;14.82;;;12.40;;
55672;SDS011;41554;45.366;20.400;2023-11-21T04:22:11;14.20;;;11.38;;
55672;SDS011;41554;45.366;20.400;2023-11-21T04:24:37;16.92;;;11.85;;
55672;SDS011;41554;45.366;20.400;2023-11-21T04:27:03;16.33;;;10.93;;
55672;SDS011;41554;45.366;20.400;2023-11-21T04:29:29;22.73;;;12.93;;
55672;SDS011;41554;45.366;20.400;2023-11-21T04:31:55;17.63;;;12.02;;
55672;SDS011;41554;45.366;20.400;2023-11-21T04:34:21;15.23;;;11.50;;
55672;SDS011;41554;45.366;20.400;2023-11-21T04:36:49;15.40;;;11.05;;
55672;SDS011;41554;45.366;20.400;2023-11-21T04:39:15;16.67;;;11.10;;
55672;SDS011;41554;45.366;20.400;2023-11-21T04:41:41;13.48;;;9.32;;
55672;SDS011;41554;45.366;20.400;2023-11-21T04:44:12;17.58;;;10.80;;
55672;SDS011;41554;45.366;20.400;2023-11-21T04:46:38;16.92;;;10.15;;
55672;SDS011;41554;45.366;20.400;2023-11-21T04:49:05;15.13;;;9.57;;
55672;SDS011;41554;45.366;20.400;2023-11-21T04:51:31;12.60;;;10.10;;
55672;SDS011;41554;45.366;20.400;2023-11-21T04:53:57;11.77;;;10.20;;
55672;SDS011;41554;45.366;20.400;2023-11-21T04:56:23;14.32;;;9.32;;
55672;SDS011;41554;45.366;20.400;2023-11-21T04:58:49;17.83;;;8.95;;
55672;SDS011;41554;45.366;20.400;2023-11-21T05:01:15;14.98;;;10.07;;
55672;SDS011;41554;45.366;20.400;2023-11-21T05:03:42;14.23;;;9.38;;
55672;SDS011;41554;45.366;20.400;2023-11-21T05:06:11;13.98;;;9.63;;
55672;SDS011;41554;45.366;20.400;2023-11-21T05:08:37;16.55;;;10.77;;
55672;SDS011;41554;45.366;20.400;2023-11-21T05:11:03;17.08;;;9.52;;
55672;SDS011;41554;45.366;20.400;2023-11-21T05:13:29;16.65;;;10.75;;
55672;SDS011;41554;45.366;20.400;2023-11-21T05:15:55;15.00;;;10.57;;
55672;SDS011;41554;45.366;20.400;2023-11-21T05:18:24;11.50;;;9.05;;
55672;SDS011;41554;45.366;20.400;2023-11-21T05:20:54;10.07;;;9.05;;
55672;SDS011;41554;45.366;20.400;2023-11-21T05:23:20;15.73;;;8.80;;
55672;SDS011;41554;45.366;20.400;2023-11-21T05:25:47;11.93;;;9.07;;
55672;SDS011;41554;45.366;20.400;2023-11-21T05:28:13;10.63;;;7.47;;
55672;SDS011;41554;45.366;20.400;2023-11-21T05:30:39;19.17;;;9.98;;
55672;SDS011;41554;45.366;20.400;2023-11-21T05:33:05;11.93;;;8.57;;
55672;SDS011;41554;45.366;20.400;2023-11-21T05:35:31;21.67;;;10.32;;
55672;SDS011;41554;45.366;20.400;2023-11-21T05:37:57;11.57;;;8.35;;
55672;SDS011;41554;45.366;20.400;2023-11-21T05:40:23;16.42;;;10.75;;
55672;SDS011;41554;45.366;20.400;2023-11-21T05:42:51;12.10;;;9.82;;
55672;SDS011;41554;45.366;20.400;2023-11-21T05:45:17;12.63;;;8.35;;
55672;SDS011;41554;45.366;20.400;2023-11-21T05:47:44;9.98;;;8.25;;
55672;SDS011;41554;45.366;20.400;2023-11-21T05:50:14;10.85;;;7.70;;
55672;SDS011;41554;45.366;20.400;2023-11-21T05:52:41;12.23;;;8.30;;
55672;SDS011;41554;45.366;20.400;2023-11-21T05:55:07;16.30;;;9.55;;
55672;SDS011;41554;45.366;20.400;2023-11-21T05:57:37;13.30;;;9.57;;
55672;SDS011;41554;45.366;20.400;2023-11-21T06:00:07;14.27;;;7.72;;
55672;SDS011;41554;45.366;20.400;2023-11-21T06:02:40;17.23;;;9.82;;
55672;SDS011;41554;45.366;20.400;2023-11-21T06:05:06;12.35;;;9.05;;
55672;SDS011;41554;45.366;20.400;2023-11-21T06:07:33;15.98;;;9.15;;
55672;SDS011;41554;45.366;20.400;2023-11-21T06:10:00;9.98;;;8.10;;
55672;SDS011;41554;45.366;20.400;2023-11-21T06:12:27;12.38;;;8.57;;
55672;SDS011;41554;45.366;20.400;2023-11-21T06:14:54;12.75;;;8.27;;
55672;SDS011;41554;45.366;20.400;2023-11-21T06:17:20;13.77;;;9.70;;
55672;SDS011;41554;45.366;20.400;2023-11-21T06:19:49;13.05;;;9.43;;
55672;SDS011;41554;45.366;20.400;2023-11-21T06:22:17;11.43;;;8.60;;
55672;SDS011;41554;45.366;20.400;2023-11-21T06:24:43;13.25;;;8.68;;
55672;SDS011;41554;45.366;20.400;2023-11-21T06:27:09;10.63;;;7.88;;
55672;SDS011;41554;45.366;20.400;2023-11-21T06:29:36;8.27;;;7.15;;
55672;SDS011;41554;45.366;20.400;2023-11-21T06:32:02;13.05;;;8.80;;
55672;SDS011;41554;45.366;20.400;2023-11-21T06:34:30;10.85;;;7.90;;
55672;SDS011;41554;45.366;20.400;2023-11-21T06:36:56;15.77;;;8.93;;
55672;SDS011;41554;45.366;20.400;2023-11-21T06:39:22;8.80;;;7.53;;
55672;SDS011;41554;45.366;20.400;2023-11-21T06:41:49;11.57;;;7.95;;
55672;SDS011;41554;45.366;20.400;2023-11-21T06:44:15;14.25;;;10.27;;
55672;SDS011;41554;45.366;20.400;2023-11-21T06:46:41;15.35;;;10.90;;
55672;SDS011;41554;45.366;20.400;2023-11-21T06:49:07;18.35;;;10.68;;
55672;SDS011;41554;45.366;20.400;2023-11-21T06:51:34;15.00;;;9.65;;
55672;SDS011;41554;45.366;20.400;2023-11-21T06:54:00;9.70;;;7.72;;
55672;SDS011;41554;45.366;20.400;2023-11-21T06:56:26;14.27;;;10.50;;
55672;SDS011;41554;45.366;20.400;2023-11-21T06:58:52;13.25;;;9.32;;
55672;SDS011;41554;45.366;20.400;2023-11-21T07:01:19;15.75;;;8.18;;
55672;SDS011;41554;45.366;20.400;2023-11-21T07:03:45;10.88;;;8.25;;
55672;SDS011;41554;45.366;20.400;2023-11-21T07:06:11;13.93;;;8.82;;
55672;SDS011;41554;45.366;20.400;2023-11-21T07:08:37;14.00;;;9.02;;
55672;SDS011;41554;45.366;20.400;2023-11-21T07:11:04;18.42;;;10.45;;
55672;SDS011;41554;45.366;20.400;2023-11-21T07:13:30;15.07;;;8.68;;
55672;SDS011;41554;45.366;20.400;2023-11-21T07:15:57;11.90;;;7.82;;
55672;SDS011;41554;45.366;20.400;2023-11-21T07:18:23;13.60;;;8.07;;
55672;SDS011;41554;45.366;20.400;2023-11-21T07:20:49;12.63;;;7.63;;
55672;SDS011;41554;45.366;20.400;2023-11-21T07:23:16;13.98;;;8.88;;
55672;SDS011;41554;45.366;20.400;2023-11-21T07:25:43;11.88;;;8.35;;
55672;SDS011;41554;45.366;20.400;2023-11-21T07:28:09;11.63;;;9.00;;
55672;SDS011;41554;45.366;20.400;2023-11-21T07:30:35;11.90;;;8.10;;
55672;SDS011;41554;45.366;20.400;2023-11-21T07:33:01;14.35;;;7.30;;
55672;SDS011;41554;45.366;20.400;2023-11-21T07:35:27;8.55;;;7.53;;
55672;SDS011;41554;45.366;20.400;2023-11-21T07:37:53;14.88;;;7.68;;
55672;SDS011;41554;45.366;20.400;2023-11-21T07:40:19;10.68;;;6.88;;
55672;SDS011;41554;45.366;20.400;2023-11-21T07:42:45;12.50;;;9.10;;
55672;SDS011;41554;45.366;20.400;2023-11-21T07:45:11;11.80;;;8.43;;
55672;SDS011;41554;45.366;20.400;2023-11-21T07:47:37;16.58;;;8.43;;
55672;SDS011;41554;45.366;20.400;2023-11-21T07:50:04;16.27;;;9.55;;
55672;SDS011;41554;45.366;20.400;2023-11-21T07:52:32;11.68;;;8.48;;
55672;SDS011;41554;45.366;20.400;2023-11-21T07:54:58;13.60;;;9.20;;
55672;SDS011;41554;45.366;20.400;2023-11-21T07:57:24;12.05;;;8.68;;
55672;SDS011;41554;45.366;20.400;2023-11-21T07:59:51;14.80;;;7.22;;
55672;SDS011;41554;45.366;20.400;2023-11-21T08:02:18;13.10;;;8.80;;
55672;SDS011;41554;45.366;20.400;2023-11-21T08:04:44;11.77;;;8.45;;
55672;SDS011;41554;45.366;20.400;2023-11-21T08:07:14;11.73;;;8.32;;
55672;SDS011;41554;45.366;20.400;2023-11-21T08:09:40;13.65;;;8.55;;
55672;SDS011;41554;45.366;20.400;2023-11-21T08:12:06;13.35;;;8.32;;
55672;SDS011;41554;45.366;20.400;2023-11-21T08:14:32;9.20;;;7.43;;
55672;SDS011;41554;45.366;20.400;2023-11-21T08:16:58;12.90;;;7.10;;
55672;SDS011;41554;45.366;20.400;2023-11-21T08:19:24;9.10;;;6.10;;
55672;SDS011;41554;45.366;20.400;2023-11-21T08:21:51;8.68;;;7.40;;
55672;SDS011;41554;45.366;20.400;2023-11-21T08:24:19;10.25;;;5.93;;
55672;SDS011;41554;45.366;20.400;2023-11-21T08:26:45;9.85;;;6.28;;
55672;SDS011;41554;45.366;20.400;2023-11-21T08:29:11;11.20;;;7.70;;
55672;SDS011;41554;45.366;20.400;2023-11-21T08:31:38;13.20;;;7.90;;
55672;SDS011;41554;45.366;20.400;2023-11-21T08:34:05;19.73;;;8.48;;
55672;SDS011;41554;45.366;20.400;2023-11-21T08:36:31;11.48;;;7.28;;
55672;SDS011;41554;45.366;20.400;2023-11-21T08:38:57;18.95;;;7.82;;
55672;SDS011;41554;45.366;20.400;2023-11-21T08:41:23;11.40;;;6.28;;
55672;SDS011;41554;45.366;20.400;2023-11-21T08:43:49;8.38;;;7.00;;
55672;SDS011;41554;45.366;20.400;2023-11-21T08:46:16;7.97;;;6.18;;
55672;SDS011;41554;45.366;20.400;2023-11-21T08:48:43;7.68;;;5.68;;
55672;SDS011;41554;45.366;20.400;2023-11-21T08:51:09;8.13;;;6.22;;
55672;SDS011;41554;45.366;20.400;2023-11-21T08:53:36;8.82;;;6.32;;
55672;SDS011;41554;45.366;20.400;2023-11-21T08:56:03;8.35;;;6.13;;
55672;SDS011;41554;45.366;20.400;2023-11-21T08:58:29;10.02;;;6.45;;
55672;SDS011;41554;45.366;20.400;2023-11-21T09:00:57;8.65;;;5.38;;
55672;SDS011;41554;45.366;20.400;2023-11-21T09:03:23;10.93;;;6.55;;
55672;SDS011;41554;45.366;20.400;2023-11-21T09:05:50;8.43;;;6.35;;
55672;SDS011;41554;45.366;20.400;2023-11-21T09:08:16;7.43;;;6.45;;
55672;SDS011;41554;45.366;20.400;2023-11-21T09:10:42;7.93;;;5.63;;
55672;SDS011;41554;45.366;20.400;2023-11-21T09:13:10;6.72;;;5.75;;
55672;SDS011;41554;45.366;20.400;2023-11-21T09:15:37;10.73;;;6.50;;
55672;SDS011;41554;45.366;20.400;2023-11-21T09:18:03;11.50;;;6.43;;
55672;SDS011;41554;45.366;20.400;2023-11-21T09:20:30;8.15;;;5.75;;
55672;SDS011;41554;45.366;20.400;2023-11-21T09:22:56;7.45;;;5.35;;
55672;SDS011;41554;45.366;20.400;2023-11-21T09:25:22;8.68;;;5.80;;
55672;SDS011;41554;45.366;20.400;2023-11-21T09:27:48;8.52;;;6.10;;
55672;SDS011;41554;45.366;20.400;2023-11-21T09:30:14;12.88;;;7.03;;
55672;SDS011;41554;45.366;20.400;2023-11-21T09:32:41;10.15;;;6.38;;
55672;SDS011;41554;45.366;20.400;2023-11-21T09:35:10;9.40;;;6.07;;
55672;SDS011;41554;45.366;20.400;2023-11-21T09:37:38;9.40;;;5.43;;
55672;SDS011;41554;45.366;20.400;2023-11-21T09:40:05;8.25;;;4.85;;
55672;SDS011;41554;45.366;20.400;2023-11-21T09:42:40;8.23;;;5.30;;
55672;SDS011;41554;45.366;20.400;2023-11-21T09:45:26;9.75;;;6.97;;
55672;SDS011;41554;45.366;20.400;2023-11-21T09:47:53;6.65;;;4.57;;
55672;SDS011;41554;45.366;20.400;2023-11-21T09:50:20;9.77;;;6.30;;
55672;SDS011;41554;45.366;20.400;2023-11-21T09:55:29;7.82;;;5.05;;
55672;SDS011;41554;45.366;20.400;2023-11-21T09:58:00;11.70;;;6.78;;
55672;SDS011;41554;45.366;20.400;2023-11-21T10:00:28;9.07;;;6.03;;
55672;SDS011;41554;45.366;20.400;2023-11-21T10:02:55;10.02;;;6.00;;
55672;SDS011;41554;45.366;20.400;2023-11-21T10:05:23;13.23;;;6.43;;
55672;SDS011;41554;45.366;20.400;2023-11-21T10:07:50;8.38;;;5.35;;
55672;SDS011;41554;45.366;20.400;2023-11-21T10:10:18;9.25;;;6.85;;
55672;SDS011;41554;45.366;20.400;2023-11-21T10:12:46;12.65;;;5.28;;
55672;SDS011;41554;45.366;20.400;2023-11-21T10:15:14;11.68;;;5.55;;
55672;SDS011;41554;45.366;20.400;2023-11-21T10:17:41;10.70;;;5.47;;
55672;SDS011;41554;45.366;20.400;2023-11-21T10:20:12;10.23;;;6.30;;
55672;SDS011;41554;45.366;20.400;2023-11-21T10:22:42;5.80;;;4.07;;
55672;SDS011;41554;45.366;20.400;2023-11-21T10:25:12;11.48;;;4.93;;
55672;SDS011;41554;45.366;20.400;2023-11-21T10:27:43;8.60;;;5.18;;
55672;SDS011;41554;45.366;20.400;2023-11-21T10:30:12;6.75;;;4.82;;
55672;SDS011;41554;45.366;20.400;2023-11-21T10:32:38;16.80;;;5.13;;
55672;SDS011;41554;45.366;20.400;2023-11-21T10:35:06;16.65;;;5.25;;
55672;SDS011;41554;45.366;20.400;2023-11-21T10:37:37;8.23;;;4.28;;
55672;SDS011;41554;45.366;20.400;2023-11-21T10:40:07;8.30;;;5.15;;
55672;SDS011;41554;45.366;20.400;2023-11-21T10:42:36;6.40;;;4.18;;
55672;SDS011;41554;45.366;20.400;2023-11-21T10:45:03;8.98;;;5.60;;
55672;SDS011;41554;45.366;20.400;2023-11-21T10:47:34;5.47;;;4.43;;
55672;SDS011;41554;45.366;20.400;2023-11-21T10:50:01;9.98;;;4.85;;
55672;SDS011;41554;45.366;20.400;2023-11-21T10:52:27;5.72;;;4.72;;
55672;SDS011;41554;45.366;20.400;2023-11-21T10:54:53;8.35;;;4.25;;
55672;SDS011;41554;45.366;20.400;2023-11-21T10:57:19;6.90;;;4.43;;
55672;SDS011;41554;45.366;20.400;2023-11-21T10:59:47;5.90;;;3.83;;
55672;SDS011;41554;45.366;20.400;2023-11-21T11:02:23;7.97;;;4.15;;
55672;SDS011;41554;45.366;20.400;2023-11-21T11:04:52;6.13;;;3.95;;
55672;SDS011;41554;45.366;20.400;2023-11-21T11:07:20;7.22;;;3.58;;
55672;SDS011;41554;45.366;20.400;2023-11-21T11:09:47;7.47;;;4.90;;
55672;SDS011;41554;45.366;20.400;2023-11-21T11:12:14;7.07;;;4.30;;
55672;SDS011;41554;45.366;20.400;2023-11-21T11:14:42;5.72;;;3.67;;
55672;SDS011;41554;45.366;20.400;2023-11-21T11:17:10;8.73;;;4.40;;
55672;SDS011;41554;45.366;20.400;2023-11-21T11:19:36;7.30;;;4.50;;
55672;SDS011;41554;45.366;20.400;2023-11-21T11:35:18;9.63;;;5.38;;
55672;SDS011;41554;45.366;20.400;2023-11-21T11:37:45;7.53;;;5.10;;
55672;SDS011;41554;45.366;20.400;2023-11-21T11:40:12;6.18;;;4.78;;
55672;SDS011;41554;45.366;20.400;2023-11-21T11:42:38;8.77;;;5.07;;
55672;SDS011;41554;45.366;20.400;2023-11-21T11:45:31;11.45;;;5.75;;
55672;SDS011;41554;45.366;20.400;2023-11-21T11:47:56;6.70;;;4.90;;
55672;SDS011;41554;45.366;20.400;2023-11-21T11:50:22;5.20;;;4.18;;
55672;SDS011;41554;45.366;20.400;2023-11-21T11:52:50;7.78;;;5.13;;
55672;SDS011;41554;45.366;20.400;2023-11-21T11:55:18;4.82;;;4.32;;
55672;SDS011;41554;45.366;20.400;2023-11-21T11:57:45;8.18;;;4.68;;
55672;SDS011;41554;45.366;20.400;2023-11-21T12:02:49;11.00;;;5.07;;
55672;SDS011;41554;45.366;20.400;2023-11-21T12:05:16;7.55;;;6.07;;
55672;SDS011;41554;45.366;20.400;2023-11-21T12:10:15;10.38;;;6.50;;
55672;SDS011;41554;45.366;20.400;2023-11-21T12:12:46;9.52;;;6.40;;
55672;SDS011;41554;45.366;20.400;2023-11-21T12:15:12;8.52;;;7.00;;
55672;SDS011;41554;45.366;20.400;2023-11-21T12:17:39;8.48;;;6.47;;
55672;SDS011;41554;45.366;20.400;2023-11-21T12:20:05;13.00;;;7.10;;
55672;SDS011;41554;45.366;20.400;2023-11-21T12:22:40;14.85;;;7.68;;
55672;SDS011;41554;45.366;20.400;2023-11-21T12:25:07;12.00;;;8.05;;
55672;SDS011;41554;45.366;20.400;2023-11-21T12:27:33;11.10;;;8.48;;
55672;SDS011;41554;45.366;20.400;2023-11-21T12:30:00;13.48;;;9.18;;
55672;SDS011;41554;45.366;20.400;2023-11-21T12:32:26;14.82;;;9.32;;
55672;SDS011;41554;45.366;20.400;2023-11-21T12:34:52;14.30;;;8.90;;
55672;SDS011;41554;45.366;20.400;2023-11-21T12:37:18;17.70;;;10.00;;
55672;SDS011;41554;45.366;20.400;2023-11-21T12:39:44;11.35;;;8.80;;
55672;SDS011;41554;45.366;20.400;2023-11-21T12:42:10;18.88;;;10.95;;
55672;SDS011;41554;45.366;20.400;2023-11-21T12:44:36;17.10;;;10.93;;
55672;SDS011;41554;45.366;20.400;2023-11-21T12:47:06;14.75;;;12.20;;
55672;SDS011;41554;45.366;20.400;2023-11-21T12:49:32;17.10;;;11.18;;
55672;SDS011;41554;45.366;20.400;2023-11-21T12:51:59;16.38;;;11.95;;
55672;SDS011;41554;45.366;20.400;2023-11-21T12:54:25;21.00;;;11.48;;
55672;SDS011;41554;45.366;20.400;2023-11-21T12:56:51;18.33;;;12.02;;
55672;SDS011;41554;45.366;20.400;2023-11-21T12:59:17;15.18;;;10.30;;
55672;SDS011;41554;45.366;20.400;2023-11-21T13:01:43;16.55;;;11.10;;
55672;SDS011;41554;45.366;20.400;2023-11-21T13:04:11;12.15;;;10.32;;
55672;SDS011;41554;45.366;20.400;2023-11-21T13:06:37;14.00;;;10.38;;
55672;SDS011;41554;45.366;20.400;2023-11-21T13:09:09;18.58;;;10.82;;
55672;SDS011;41554;45.366;20.400;2023-11-21T13:11:36;17.98;;;11.32;;
55672;SDS011;41554;45.366;20.400;2023-11-21T13:14:05;16.05;;;10.60;;
55672;SDS011;41554;45.366;20.400;2023-11-21T13:16:31;12.93;;;9.80;;
55672;SDS011;41554;45.366;20.400;2023-11-21T13:18:58;18.08;;;9.93;;
55672;SDS011;41554;45.366;20.400;2023-11-21T13:21:24;16.40;;;9.90;;
55672;SDS011;41554;45.366;20.400;2023-11-21T13:23:50;15.00;;;9.80;;
55672;SDS011;41554;45.366;20.400;2023-11-21T13:26:18;11.95;;;9.13;;
55672;SDS011;41554;45.366;20.400;2023-11-21T13:28:45;14.05;;;9.68;;
55672;SDS011;41554;45.366;20.400;2023-11-21T13:31:12;11.57;;;9.90;;
55672;SDS011;41554;45.366;20.400;2023-11-21T13:33:57;16.80;;;12.25;;
55672;SDS011;41554;45.366;20.400;2023-11-21T13:36:30;13.48;;;11.13;;
55672;SDS011;41554;45.366;20.400;2023-11-21T13:38:58;22.75;;;10.65;;
55672;SDS011;41554;45.366;20.400;2023-11-21T13:41:29;11.20;;;8.77;;
55672;SDS011;41554;45.366;20.400;2023-11-21T13:43:56;12.20;;;8.40;;
55672;SDS011;41554;45.366;20.400;2023-11-21T13:46:40;10.27;;;8.38;;
55672;SDS011;41554;45.366;20.400;2023-11-21T13:49:06;12.18;;;8.52;;
55672;SDS011;41554;45.366;20.400;2023-11-21T13:51:35;13.98;;;9.30;;
55672;SDS011;41554;45.366;20.400;2023-11-21T13:54:09;11.55;;;9.40;;
55672;SDS011;41554;45.366;20.400;2023-11-21T13:56:36;12.27;;;9.30;;
55672;SDS011;41554;45.366;20.400;2023-11-21T13:59:02;14.80;;;11.32;;
55672;SDS011;41554;45.366;20.400;2023-11-21T14:01:44;16.65;;;10.27;;
55672;SDS011;41554;45.366;20.400;2023-11-21T14:04:25;14.60;;;10.43;;
55672;SDS011;41554;45.366;20.400;2023-11-21T14:07:10;14.90;;;10.35;;
55672;SDS011;41554;45.366;20.400;2023-11-21T14:09:47;21.20;;;11.10;;
55672;SDS011;41554;45.366;20.400;2023-11-21T14:12:14;13.68;;;10.43;;
55672;SDS011;41554;45.366;20.400;2023-11-21T14:14:41;17.98;;;11.27;;
55672;SDS011;41554;45.366;20.400;2023-11-21T14:17:07;23.98;;;12.90;;
55672;SDS011;41554;45.366;20.400;2023-11-21T14:19:35;14.30;;;9.77;;
55672;SDS011;41554;45.366;20.400;2023-11-21T14:22:05;15.38;;;11.57;;
55672;SDS011;41554;45.366;20.400;2023-11-21T14:24:34;12.30;;;9.75;;
55672;SDS011;41554;45.366;20.400;2023-11-21T14:27:00;10.27;;;9.25;;
55672;SDS011;41554;45.366;20.400;2023-11-21T14:29:26;17.77;;;12.20;;
55672;SDS011;41554;45.366;20.400;2023-11-21T14:31:54;12.15;;;9.75;;
55672;SDS011;41554;45.366;20.400;2023-11-21T14:34:23;24.73;;;12.38;;
55672;SDS011;41554;45.366;20.400;2023-11-21T14:36:49;21.63;;;10.32;;
55672;SDS011;41554;45.366;20.400;2023-11-21T14:39:15;19.70;;;10.40;;